createdAt,value
2022-08-26T00:00:36.921Z,17.41
2022-08-26T00:03:23.581Z,17.42
2022-08-26T00:06:09.024Z,17.34
2022-08-26T00:08:57.563Z,17.39
2022-08-26T00:11:42.757Z,17.29
2022-08-26T00:14:30.917Z,17.17
2022-08-26T00:17:16.358Z,17.05
2022-08-26T00:20:02.544Z,16.95
2022-08-26T00:22:48.344Z,16.91
2022-08-26T00:25:34.264Z,16.85
2022-08-26T00:28:20.149Z,16.79
2022-08-26T00:31:07.298Z,16.72
2022-08-26T00:33:52.225Z,16.69
2022-08-26T00:36:37.820Z,16.66
2022-08-26T00:39:24.622Z,16.63
2022-08-26T00:42:09.969Z,16.58
2022-08-26T00:44:56.373Z,16.43
2022-08-26T00:48:09.304Z,16.54
2022-08-26T00:51:02.271Z,16.47
2022-08-26T00:54:04.029Z,16.35
2022-08-26T00:56:57.799Z,16.36
2022-08-26T00:59:49.246Z,16.34
2022-08-26T01:02:34.180Z,16.28
2022-08-26T01:05:19.834Z,16.24
2022-08-26T01:08:05.221Z,16.23
2022-08-26T01:10:51.386Z,16.19
2022-08-26T01:13:41.181Z,16.05
2022-08-26T01:16:26.756Z,15.98
2022-08-26T01:19:29.685Z,15.92
2022-08-26T01:22:20.837Z,15.92
2022-08-26T01:25:06.771Z,15.97
2022-08-26T01:27:57.563Z,15.96
2022-08-26T01:30:44.762Z,15.92
2022-08-26T01:33:47.661Z,15.90
2022-08-26T01:36:33.034Z,15.88
2022-08-26T01:39:18.858Z,15.88
2022-08-26T01:42:10.340Z,15.86
2022-08-26T01:45:15.635Z,15.82
2022-08-26T01:48:04.810Z,15.80
2022-08-26T01:50:51.583Z,15.75
2022-08-26T01:53:38.278Z,15.72
2022-08-26T01:56:33.289Z,15.67
2022-08-26T01:59:24.481Z,15.66
2022-08-26T02:02:09.717Z,15.66
2022-08-26T02:05:01.565Z,15.59
2022-08-26T02:07:48.143Z,15.65
2022-08-26T02:10:33.523Z,15.57
2022-08-26T02:13:18.630Z,15.53
2022-08-26T02:16:05.542Z,15.57
2022-08-26T02:18:55.479Z,15.47
2022-08-26T02:21:41.368Z,15.36
2022-08-26T02:24:29.551Z,15.42
2022-08-26T02:27:17.264Z,15.47
2022-08-26T02:30:17.093Z,15.41
2022-08-26T02:33:03.763Z,15.30
2022-08-26T02:35:49.104Z,15.36
2022-08-26T02:38:35.752Z,15.36
2022-08-26T02:41:23.000Z,15.38
2022-08-26T02:44:08.679Z,15.33
2022-08-26T02:46:54.611Z,15.32
2022-08-26T02:49:42.059Z,15.37
2022-08-26T02:52:29.761Z,15.45
2022-08-26T02:55:15.565Z,15.44
2022-08-26T02:58:01.518Z,15.50
2022-08-26T03:00:52.915Z,15.46
2022-08-26T03:03:38.530Z,15.50
2022-08-26T03:06:25.049Z,15.52
2022-08-26T03:09:10.912Z,15.50
2022-08-26T03:12:04.170Z,15.53
2022-08-26T03:14:49.056Z,15.54
2022-08-26T03:17:34.363Z,15.48
2022-08-26T03:20:21.242Z,15.45
2022-08-26T03:23:06.561Z,15.46
2022-08-26T03:25:53.727Z,15.40
2022-08-26T03:29:02.702Z,15.40
2022-08-26T03:31:48.457Z,15.36
2022-08-26T03:34:35.586Z,15.31
2022-08-26T03:37:21.608Z,15.27
2022-08-26T03:40:10.338Z,15.27
2022-08-26T03:42:55.316Z,15.22
2022-08-26T03:45:41.056Z,15.15
2022-08-26T03:48:27.924Z,15.08
2022-08-26T03:51:18.293Z,15.05
2022-08-26T03:54:05.367Z,15.07
2022-08-26T03:56:53.923Z,14.95
2022-08-26T03:59:39.074Z,15.00
2022-08-26T04:02:27.079Z,14.97
2022-08-26T04:05:14.444Z,14.91
2022-08-26T04:07:59.917Z,14.88
2022-08-26T04:10:44.886Z,14.84
2022-08-26T04:13:30.285Z,14.83
2022-08-26T04:16:17.813Z,14.78
2022-08-26T04:19:03.539Z,14.75
2022-08-26T04:21:53.036Z,14.72
2022-08-26T04:24:39.491Z,14.64
2022-08-26T04:27:24.874Z,14.63
2022-08-26T04:30:11.073Z,14.64
2022-08-26T04:32:56.786Z,14.48
2022-08-26T04:35:44.111Z,14.47
2022-08-26T04:38:30.229Z,14.63
2022-08-26T04:41:17.021Z,14.53
2022-08-26T04:44:03.250Z,14.54
2022-08-26T04:46:48.247Z,14.50
2022-08-26T04:49:35.090Z,14.49
2022-08-26T04:52:20.679Z,14.39
2022-08-26T04:55:08.424Z,14.40
2022-08-26T04:57:54.052Z,14.34
2022-08-26T05:00:39.469Z,14.34
2022-08-26T05:03:27.178Z,14.29
2022-08-26T05:06:16.338Z,14.29
2022-08-26T05:09:04.835Z,14.28
2022-08-26T05:11:52.063Z,14.25
2022-08-26T05:14:37.782Z,14.19
2022-08-26T05:17:23.154Z,14.13
2022-08-26T05:20:08.958Z,14.11
2022-08-26T05:22:54.441Z,14.03
2022-08-26T05:25:41.923Z,14.09
2022-08-26T05:28:29.708Z,14.11
2022-08-26T05:31:21.350Z,14.16
2022-08-26T05:34:07.456Z,14.13
2022-08-26T05:36:53.728Z,14.11
2022-08-26T05:39:41.186Z,14.04
2022-08-26T05:42:26.141Z,14.12
2022-08-26T05:45:12.913Z,14.07
2022-08-26T05:47:58.333Z,14.11
2022-08-26T05:50:47.349Z,14.19
2022-08-26T05:53:33.265Z,14.27
2022-08-26T05:56:25.013Z,14.31
2022-08-26T05:59:14.702Z,14.31
2022-08-26T06:02:01.837Z,14.29
2022-08-26T06:04:47.544Z,14.42
2022-08-26T06:07:52.420Z,14.44
2022-08-26T06:10:44.866Z,14.49
2022-08-26T06:13:32.045Z,14.54
2022-08-26T06:16:19.633Z,14.60
2022-08-26T06:19:10.696Z,14.66
2022-08-26T06:21:56.733Z,14.75
2022-08-26T06:25:00.258Z,14.83
2022-08-26T06:27:45.865Z,14.91
2022-08-26T06:30:32.958Z,14.91
2022-08-26T06:33:19.181Z,15.07
2022-08-26T06:36:04.577Z,15.14
2022-08-26T06:38:51.393Z,15.19
2022-08-26T06:41:43.145Z,15.20
2022-08-26T06:44:28.423Z,15.32
2022-08-26T06:47:13.499Z,15.35
2022-08-26T06:49:58.773Z,15.46
2022-08-26T06:52:43.943Z,15.49
2022-08-26T06:55:29.672Z,15.63
2022-08-26T06:58:14.773Z,15.69
2022-08-26T07:01:03.690Z,15.68
2022-08-26T07:03:59.229Z,15.81
2022-08-26T07:06:52.389Z,15.91
2022-08-26T07:09:38.913Z,15.98
2022-08-26T07:12:26.016Z,16.06
2022-08-26T07:15:11.695Z,16.14
2022-08-26T07:17:57.230Z,16.23
2022-08-26T07:20:42.418Z,16.22
2022-08-26T07:23:27.964Z,16.32
2022-08-26T07:26:20.467Z,16.44
2022-08-26T07:29:06.819Z,16.52
2022-08-26T07:31:52.040Z,16.62
2022-08-26T07:34:38.389Z,16.66
2022-08-26T07:37:24.342Z,16.69
2022-08-26T07:40:09.903Z,16.70
2022-08-26T07:42:55.459Z,16.76
2022-08-26T07:45:40.773Z,16.76
2022-08-26T07:48:26.078Z,16.95
2022-08-26T07:51:11.319Z,17.04
2022-08-26T07:53:56.672Z,17.16
2022-08-26T07:56:41.973Z,17.22
2022-08-26T07:59:29.677Z,17.30
2022-08-26T08:02:15.865Z,17.33
2022-08-26T08:05:01.258Z,17.49
2022-08-26T08:07:47.284Z,17.62
2022-08-26T08:10:34.219Z,17.76
2022-08-26T08:13:20.437Z,17.89
2022-08-26T08:16:06.921Z,17.91
2022-08-26T08:18:57.922Z,17.91
2022-08-26T08:21:44.171Z,17.93
2022-08-26T08:24:29.302Z,17.98
2022-08-26T08:27:14.438Z,18.10
2022-08-26T08:30:00.406Z,18.24
2022-08-26T08:32:45.710Z,18.30
2022-08-26T08:35:30.909Z,18.34
2022-08-26T08:38:16.599Z,18.36
2022-08-26T08:41:02.125Z,18.39
2022-08-26T08:43:51.878Z,18.41
2022-08-26T08:46:37.863Z,18.37
2022-08-26T08:49:23.628Z,18.42
2022-08-26T08:52:29.233Z,18.44
2022-08-26T08:55:18.031Z,18.46
2022-08-26T08:58:10.639Z,18.52
2022-08-26T09:01:04.665Z,18.57
2022-08-26T09:04:38.520Z,18.52
2022-08-26T09:07:36.501Z,18.72
2022-08-26T09:10:43.506Z,18.85
2022-08-26T09:13:31.916Z,18.90
2022-08-26T09:16:24.041Z,18.95
2022-08-26T09:19:28.554Z,19.01
2022-08-26T09:22:29.254Z,19.04
2022-08-26T09:25:15.893Z,19.08
2022-08-26T09:28:01.105Z,19.08
2022-08-26T09:31:02.070Z,19.20
2022-08-26T09:34:17.798Z,19.24
2022-08-26T09:37:04.685Z,19.33
2022-08-26T09:39:50.077Z,19.38
2022-08-26T09:42:35.181Z,19.49
2022-08-26T09:45:28.261Z,19.53
2022-08-26T09:48:32.334Z,19.59
2022-08-26T09:51:24.742Z,19.49
2022-08-26T09:54:30.313Z,19.64
2022-08-26T09:57:26.517Z,19.79
2022-08-26T10:00:27.116Z,19.91
2022-08-26T10:03:24.198Z,19.97
2022-08-26T10:06:12.320Z,20.00
2022-08-26T10:09:02.723Z,20.10
2022-08-26T10:11:55.155Z,20.16
2022-08-26T10:14:48.435Z,20.29
2022-08-26T10:17:44.321Z,20.31
2022-08-26T10:20:36.504Z,20.33
2022-08-26T10:23:27.034Z,20.40
2022-08-26T10:26:17.536Z,20.64
2022-08-26T10:29:13.477Z,20.74
2022-08-26T10:32:03.599Z,20.82
2022-08-26T10:34:48.812Z,20.81
2022-08-26T10:37:46.654Z,20.93
2022-08-26T10:40:55.104Z,21.15
2022-08-26T10:43:50.101Z,21.24
2022-08-26T10:46:58.386Z,21.33
2022-08-26T10:49:45.885Z,21.40
2022-08-26T10:52:46.833Z,21.44
2022-08-26T10:55:40.770Z,21.58
2022-08-26T10:58:40.832Z,21.75
2022-08-26T11:01:43.249Z,21.85
2022-08-26T11:04:31.547Z,22.02
2022-08-26T11:07:37.815Z,22.13
2022-08-26T11:10:22.858Z,22.47
2022-08-26T11:13:09.132Z,22.62
2022-08-26T11:15:54.126Z,22.82
2022-08-26T11:18:42.023Z,22.99
2022-08-26T11:22:01.164Z,23.12
2022-08-26T11:24:53.596Z,23.24
2022-08-26T11:27:38.538Z,23.38
2022-08-26T11:30:24.184Z,23.22
2022-08-26T11:33:10.788Z,22.89
2022-08-26T11:35:57.234Z,22.59
2022-08-26T11:38:42.823Z,22.62
2022-08-26T11:41:29.960Z,22.85
2022-08-26T11:44:21.551Z,23.21
2022-08-26T11:47:11.615Z,23.39
2022-08-26T11:50:09.427Z,23.72
2022-08-26T11:53:06.290Z,23.83
2022-08-26T11:55:53.800Z,23.86
2022-08-26T11:58:44.229Z,24.12
2022-08-26T12:01:33.082Z,24.41
2022-08-26T12:04:28.563Z,24.66
2022-08-26T12:07:14.610Z,24.70
2022-08-26T12:10:02.737Z,24.85
2022-08-26T12:12:55.002Z,25.00
2022-08-26T12:15:39.884Z,25.08
2022-08-26T12:18:31.148Z,25.39
2022-08-26T12:21:24.425Z,25.67
2022-08-26T12:24:09.976Z,25.91
2022-08-26T12:27:16.378Z,25.94
2022-08-26T12:30:09.658Z,26.11
2022-08-26T12:33:21.904Z,26.15
2022-08-26T12:36:08.488Z,26.36
2022-08-26T12:38:58.122Z,26.54
2022-08-26T12:42:07.803Z,26.82
2022-08-26T12:45:06.448Z,26.96
2022-08-26T12:47:59.134Z,27.01
2022-08-26T12:50:47.758Z,26.86
2022-08-26T12:53:35.212Z,26.57
2022-08-26T12:56:22.122Z,26.82
2022-08-26T12:59:23.819Z,27.09
2022-08-26T13:02:08.931Z,27.29
2022-08-26T13:05:00.730Z,27.46
2022-08-26T13:08:08.879Z,27.59
2022-08-26T13:11:10.285Z,27.61
2022-08-26T13:14:01.999Z,27.75
2022-08-26T13:16:47.319Z,27.92
2022-08-26T13:19:32.350Z,28.04
2022-08-26T13:22:22.921Z,28.11
2022-08-26T13:25:08.386Z,28.32
2022-08-26T13:27:53.978Z,28.54
2022-08-26T13:30:40.578Z,28.60
2022-08-26T13:33:26.720Z,28.40
2022-08-26T13:36:13.156Z,28.14
2022-08-26T13:38:58.923Z,27.81
2022-08-26T13:41:44.422Z,27.37
2022-08-26T13:44:29.597Z,26.95
2022-08-26T13:47:14.923Z,26.64
2022-08-26T13:50:00.239Z,26.66
2022-08-26T13:52:45.507Z,26.45
2022-08-26T13:55:30.848Z,27.09
2022-08-26T13:58:16.492Z,27.52
2022-08-26T14:01:02.216Z,27.70
2022-08-26T14:03:47.331Z,28.19
2022-08-26T14:06:32.726Z,28.27
2022-08-26T14:09:17.959Z,28.51
2022-08-26T14:12:03.566Z,28.45
2022-08-26T14:14:48.735Z,27.75
2022-08-26T14:17:34.122Z,27.44
2022-08-26T14:20:29.071Z,27.82
2022-08-26T14:23:14.690Z,28.22
2022-08-26T14:26:00.374Z,27.70
2022-08-26T14:28:45.310Z,27.93
2022-08-26T14:31:32.990Z,28.34
2022-08-26T14:34:18.625Z,28.50
2022-08-26T14:37:07.232Z,28.92
2022-08-26T14:39:53.595Z,29.08
2022-08-26T14:42:38.955Z,28.69
2022-08-26T14:45:25.936Z,28.65
2022-08-26T14:48:11.309Z,28.82
2022-08-26T14:50:56.344Z,29.07
2022-08-26T14:54:00.398Z,29.13
2022-08-26T14:56:51.216Z,29.20
2022-08-26T14:59:49.702Z,29.13
2022-08-26T15:02:35.152Z,29.42
2022-08-26T15:05:20.745Z,29.18
2022-08-26T15:08:10.265Z,28.95
2022-08-26T15:10:55.472Z,28.93
2022-08-26T15:13:40.632Z,28.98
2022-08-26T15:16:27.101Z,29.10
2022-08-26T15:19:13.654Z,29.15
2022-08-26T15:21:58.731Z,29.12
2022-08-26T15:24:43.934Z,28.79
2022-08-26T15:27:29.228Z,28.49
2022-08-26T15:30:16.141Z,28.30
2022-08-26T15:33:01.518Z,28.09
2022-08-26T15:35:46.777Z,27.96
2022-08-26T15:38:36.998Z,27.75
2022-08-26T15:41:23.236Z,27.62
2022-08-26T15:44:10.119Z,27.52
2022-08-26T15:46:58.626Z,27.32
2022-08-26T15:49:43.945Z,27.32
2022-08-26T15:52:28.971Z,27.19
2022-08-26T15:55:13.921Z,27.15
2022-08-26T15:57:59.946Z,27.03
2022-08-26T16:00:44.973Z,26.88
2022-08-26T16:03:30.245Z,26.83
2022-08-26T16:06:16.725Z,26.79
2022-08-26T16:09:02.322Z,26.57
2022-08-26T16:11:47.401Z,26.58
2022-08-26T16:14:32.688Z,26.49
2022-08-26T16:17:18.389Z,26.55
2022-08-26T16:20:04.738Z,26.40
2022-08-26T16:22:49.925Z,26.34
2022-08-26T16:25:35.027Z,26.18
2022-08-26T16:28:26.180Z,26.04
2022-08-26T16:31:11.918Z,25.95
2022-08-26T16:33:57.085Z,25.92
2022-08-26T16:36:42.193Z,25.75
2022-08-26T16:39:27.421Z,25.66
2022-08-26T16:42:12.661Z,25.60
2022-08-26T16:44:57.680Z,25.52
2022-08-26T16:47:42.842Z,25.51
2022-08-26T16:50:28.198Z,25.50
2022-08-26T16:56:03.822Z,25.36
2022-08-26T16:58:49.141Z,25.28
2022-08-26T17:01:34.553Z,25.19
2022-08-26T17:04:19.797Z,25.12
2022-08-26T17:07:05.330Z,25.08
2022-08-26T17:09:50.423Z,24.96
2022-08-26T17:12:36.225Z,24.87
2022-08-26T17:15:25.128Z,24.81
2022-08-26T17:18:10.125Z,24.71
2022-08-26T17:20:55.955Z,24.52
2022-08-26T17:23:43.771Z,24.38
2022-08-26T17:26:29.435Z,24.16
2022-08-26T17:29:14.495Z,24.07
2022-08-26T17:32:00.111Z,23.97
2022-08-26T17:34:45.141Z,23.96
2022-08-26T17:37:30.042Z,23.80
2022-08-26T17:40:22.189Z,23.56
2022-08-26T17:43:12.078Z,23.42
2022-08-26T17:46:06.809Z,23.31
2022-08-26T17:48:52.764Z,23.21
2022-08-26T17:51:37.911Z,23.11
2022-08-26T17:54:23.101Z,23.16
2022-08-26T17:57:10.700Z,23.09
2022-08-26T17:59:56.502Z,22.90
2022-08-26T18:02:42.738Z,22.92
2022-08-26T18:05:28.075Z,22.84
2022-08-26T18:08:13.080Z,22.79
2022-08-26T18:10:58.993Z,22.68
2022-08-26T18:13:47.179Z,22.58
2022-08-26T18:16:38.092Z,22.44
2022-08-26T18:19:23.101Z,22.34
2022-08-26T18:22:08.524Z,22.28
2022-08-26T18:24:58.965Z,22.25
2022-08-26T18:27:44.606Z,22.20
2022-08-26T18:30:29.931Z,22.08
2022-08-26T18:33:15.322Z,21.96
2022-08-26T18:36:02.083Z,21.99
2022-08-26T18:38:50.494Z,21.94
2022-08-26T18:41:53.250Z,21.93
2022-08-26T18:44:38.549Z,21.78
2022-08-26T18:47:23.999Z,21.72
2022-08-26T18:50:10.803Z,21.65
2022-08-26T18:52:56.158Z,21.54
2022-08-26T18:55:41.377Z,21.47
2022-08-26T18:58:26.982Z,21.38
2022-08-26T19:01:13.165Z,21.40
2022-08-26T19:03:59.943Z,21.33
2022-08-26T19:06:48.008Z,21.26
2022-08-26T19:09:33.748Z,21.17
2022-08-26T19:12:18.763Z,21.12
2022-08-26T19:15:04.329Z,21.04
2022-08-26T19:17:49.453Z,21.00
2022-08-26T19:20:40.663Z,20.98
2022-08-26T19:23:31.910Z,20.93
2022-08-26T19:26:19.308Z,20.89
2022-08-26T19:29:05.250Z,20.85
2022-08-26T19:31:50.721Z,20.78
2022-08-26T19:34:36.353Z,20.72
2022-08-26T19:37:21.231Z,20.69
2022-08-26T19:40:07.706Z,20.65
2022-08-26T19:42:52.950Z,20.72
2022-08-26T19:45:38.127Z,20.60
2022-08-26T19:48:23.344Z,20.66
2022-08-26T19:51:11.396Z,20.60
2022-08-26T19:53:59.154Z,20.52
2022-08-26T19:56:49.173Z,20.50
2022-08-26T19:59:36.191Z,20.39
2022-08-26T20:02:21.483Z,20.33
2022-08-26T20:05:08.851Z,20.24
2022-08-26T20:07:54.201Z,20.31
2022-08-26T20:10:39.151Z,20.27
2022-08-26T20:13:25.872Z,20.25
2022-08-26T20:16:12.003Z,20.23
2022-08-26T20:19:16.104Z,20.22
2022-08-26T20:22:01.904Z,20.17
2022-08-26T20:24:47.373Z,20.19
2022-08-26T20:27:37.702Z,20.19
2022-08-26T20:30:23.758Z,20.14
2022-08-26T20:33:09.089Z,20.10
2022-08-26T20:35:54.060Z,19.98
2022-08-26T20:38:39.192Z,20.03
2022-08-26T20:41:25.660Z,19.96
2022-08-26T20:44:13.227Z,19.88
2022-08-26T20:46:59.199Z,19.73
2022-08-26T20:49:44.312Z,19.82
2022-08-26T20:52:29.722Z,19.80
2022-08-26T20:55:15.347Z,19.69
2022-08-26T20:58:00.344Z,19.65
2022-08-26T21:00:45.642Z,19.61
2022-08-26T21:03:30.777Z,19.55
2022-08-26T21:06:15.800Z,19.48
2022-08-26T21:09:01.608Z,19.41
2022-08-26T21:11:46.802Z,19.42
2022-08-26T21:14:32.047Z,19.38
2022-08-26T21:17:17.365Z,19.36
2022-08-26T21:20:02.632Z,19.33
2022-08-26T21:22:47.490Z,19.18
2022-08-26T21:25:32.460Z,19.19
2022-08-26T21:28:17.729Z,19.13
2022-08-26T21:31:08.660Z,19.08
2022-08-26T21:33:53.454Z,19.03
2022-08-26T21:36:38.800Z,18.92
2022-08-26T21:39:23.856Z,18.98
2022-08-26T21:42:09.189Z,18.86
2022-08-26T21:44:54.441Z,18.75
2022-08-26T21:47:40.532Z,18.80
2022-08-26T21:50:25.785Z,18.78
2022-08-26T21:53:13.438Z,18.68
2022-08-26T21:55:58.562Z,18.75
2022-08-26T21:58:44.247Z,18.69
2022-08-26T22:01:34.640Z,18.65
2022-08-26T22:04:20.508Z,18.54
2022-08-26T22:07:05.854Z,18.54
2022-08-26T22:09:50.841Z,18.50
2022-08-26T22:12:36.165Z,18.47
2022-08-26T22:15:23.173Z,18.45
2022-08-26T22:18:09.501Z,18.32
2022-08-26T22:21:02.609Z,18.38
2022-08-26T22:23:48.163Z,18.26
2022-08-26T22:26:34.465Z,17.97
2022-08-26T22:29:20.755Z,17.88
2022-08-26T22:32:06.258Z,17.75
2022-08-26T22:34:51.653Z,17.74
2022-08-26T22:37:36.890Z,17.69
2022-08-26T22:40:22.297Z,17.76
2022-08-26T22:43:07.626Z,17.70
2022-08-26T22:45:54.102Z,17.68
2022-08-26T22:48:39.239Z,17.70
2022-08-26T22:51:24.948Z,17.68
2022-08-26T22:54:10.445Z,17.68
2022-08-26T22:56:55.889Z,17.62
2022-08-26T22:59:41.158Z,17.63
2022-08-26T23:02:27.584Z,17.53
2022-08-26T23:05:13.077Z,17.43
2022-08-26T23:07:58.895Z,17.34
2022-08-26T23:10:46.163Z,17.20
2022-08-26T23:13:31.417Z,17.29
2022-08-26T23:16:16.686Z,17.33
2022-08-26T23:19:04.094Z,17.34
2022-08-26T23:21:50.158Z,17.30
2022-08-26T23:24:35.443Z,17.28
2022-08-26T23:27:20.546Z,17.25
2022-08-26T23:30:13.582Z,17.07
2022-08-26T23:32:58.762Z,17.04
2022-08-26T23:35:44.101Z,16.99
2022-08-26T23:38:29.064Z,16.84
2022-08-26T23:41:15.596Z,16.81
2022-08-26T23:44:05.203Z,16.83
2022-08-26T23:46:50.425Z,16.86
2022-08-26T23:49:36.305Z,16.66
2022-08-26T23:52:39.961Z,16.56
2022-08-26T23:55:25.518Z,16.45
2022-08-26T23:58:11.181Z,16.51
